createdAt,value
2017-04-14T00:00:04.674Z,68.84
2017-04-14T00:00:30.776Z,68.65
2017-04-14T00:00:56.879Z,68.56
2017-04-14T00:01:23.133Z,70.27
2017-04-14T00:01:49.212Z,69.89
2017-04-14T00:02:15.322Z,69.7
2017-04-14T00:02:41.404Z,71.03
2017-04-14T00:03:07.533Z,69.6
2017-04-14T00:03:33.637Z,68.08
2017-04-14T00:03:59.741Z,67.13
2017-04-14T00:04:25.914Z,68.56
2017-04-14T00:04:52.042Z,68.46
2017-04-14T00:05:18.145Z,68.27
2017-04-14T00:05:44.228Z,68.56
2017-04-14T00:06:10.338Z,70.47
2017-04-14T00:06:36.431Z,69.32
2017-04-14T00:07:02.511Z,69.6
2017-04-14T00:07:28.594Z,69.23
2017-04-14T00:07:54.700Z,67.89
2017-04-14T00:08:20.950Z,67.61
2017-04-14T00:08:47.055Z,68.84
2017-04-14T00:09:13.176Z,68.56
2017-04-14T00:09:39.297Z,69.51
2017-04-14T00:10:05.395Z,68.27
2017-04-14T00:10:31.499Z,67.7
2017-04-14T00:10:57.604Z,67.13
2017-04-14T00:11:23.730Z,67.22
2017-04-14T00:11:49.837Z,66.75
2017-04-14T00:12:15.921Z,66.33
2017-04-14T00:12:42.030Z,66.14
2017-04-14T00:13:08.135Z,66.14
2017-04-14T00:13:34.220Z,66.24
2017-04-14T00:14:00.358Z,66.05
2017-04-14T00:14:26.464Z,66.43
2017-04-14T00:14:52.597Z,67.1
2017-04-14T00:15:18.724Z,68.05
2017-04-14T00:15:44.827Z,70.72
2017-04-14T00:16:10.932Z,69.76
2017-04-14T00:16:37.012Z,69.48
2017-04-14T00:17:03.094Z,68.62
2017-04-14T00:17:29.177Z,68.52
2017-04-14T00:17:55.283Z,70.62
2017-04-14T00:18:21.372Z,71.47
2017-04-14T00:18:47.515Z,70.62
2017-04-14T00:19:13.644Z,70.72
2017-04-14T00:19:39.723Z,71.76
2017-04-14T00:20:05.805Z,71.28
2017-04-14T00:20:31.909Z,69.79
2017-04-14T00:20:57.990Z,69.19
2017-04-14T00:21:24.096Z,69.6
2017-04-14T00:21:50.176Z,69.57
2017-04-14T00:22:16.282Z,70.43
2017-04-14T00:22:42.385Z,69.67
2017-04-14T00:23:08.489Z,69.51
2017-04-14T00:23:34.618Z,69
2017-04-14T00:24:00.944Z,68.37
2017-04-14T00:24:27.327Z,67.1
2017-04-14T00:24:53.457Z,67
2017-04-14T00:25:19.584Z,67.1
2017-04-14T00:25:45.706Z,68.71
2017-04-14T00:26:11.798Z,69.67
2017-04-14T00:26:38.030Z,68.33
2017-04-14T00:27:04.109Z,68.81
2017-04-14T00:27:30.214Z,69.48
2017-04-14T00:27:56.336Z,68.62
2017-04-14T00:28:22.444Z,67.67
2017-04-14T00:28:48.573Z,67.57
2017-04-14T00:29:14.654Z,67.47
2017-04-14T00:29:40.783Z,67.1
2017-04-14T00:30:06.867Z,67.38
2017-04-14T00:30:32.996Z,67.57
2017-04-14T00:30:59.127Z,68.15
2017-04-14T00:31:25.234Z,68.62
2017-04-14T00:31:51.339Z,69.48
2017-04-14T00:32:17.419Z,70.52
2017-04-14T00:32:43.524Z,69.76
2017-04-14T00:33:09.651Z,69.67
2017-04-14T00:33:35.779Z,69.67
2017-04-14T00:34:01.861Z,69.48
2017-04-14T00:34:27.992Z,68.81
2017-04-14T00:34:54.073Z,68.43
2017-04-14T00:35:20.155Z,68.33
2017-04-14T00:35:46.258Z,70.14
2017-04-14T00:36:12.360Z,71.38
2017-04-14T00:36:38.464Z,71.09
2017-04-14T00:37:04.546Z,69.48
2017-04-14T00:37:30.650Z,68.62
2017-04-14T00:37:56.849Z,67.95
2017-04-14T00:38:22.982Z,68.15
2017-04-14T00:38:49.088Z,68.15
2017-04-14T00:39:15.196Z,67.47
2017-04-14T00:39:41.326Z,68.62
2017-04-14T00:40:07.480Z,67.86
2017-04-14T00:40:33.587Z,67.76
2017-04-14T00:40:59.668Z,67.95
2017-04-14T00:41:25.796Z,67.47
2017-04-14T00:41:51.878Z,67.1
2017-04-14T00:42:17.985Z,67.29
2017-04-14T00:42:44.113Z,67.1
2017-04-14T00:43:10.244Z,67.19
2017-04-14T00:43:36.370Z,67.1
2017-04-14T00:44:02.496Z,67.29
2017-04-14T00:44:28.599Z,67.47
2017-04-14T00:44:54.725Z,69.48
2017-04-14T00:45:20.832Z,71
2017-04-14T00:45:46.911Z,70.14
2017-04-14T00:46:12.994Z,69.57
2017-04-14T00:46:39.068Z,69.67
2017-04-14T00:47:05.151Z,69.57
2017-04-14T00:47:31.280Z,68.71
2017-04-14T00:47:57.403Z,68.62
2017-04-14T00:48:23.485Z,68.05
2017-04-14T00:48:49.611Z,67.76
2017-04-14T00:49:15.694Z,67.29
2017-04-14T00:49:41.800Z,67.1
2017-04-14T00:50:07.908Z,67.38
2017-04-14T00:50:33.990Z,67.29
2017-04-14T00:51:00.074Z,67.38
2017-04-14T00:51:26.157Z,67.29
2017-04-14T00:51:52.240Z,67.47
2017-04-14T00:52:18.320Z,67.1
2017-04-14T00:52:44.468Z,67.19
2017-04-14T00:53:10.597Z,67.19
2017-04-14T00:53:36.701Z,67.1
2017-04-14T00:54:02.807Z,67.86
2017-04-14T00:54:28.937Z,67.86
2017-04-14T00:54:55.068Z,69.29
2017-04-14T00:55:21.150Z,68.9
2017-04-14T00:55:47.230Z,68.59
2017-04-14T00:56:13.310Z,68.52
2017-04-14T00:56:39.392Z,68.49
2017-04-14T00:57:05.496Z,70.52
2017-04-14T00:57:31.603Z,69.57
2017-04-14T00:57:57.751Z,69
2017-04-14T00:58:23.901Z,68.9
2017-04-14T00:58:50.051Z,69.48
2017-04-14T00:59:16.156Z,69.1
2017-04-14T00:59:42.236Z,68.9
2017-04-14T01:00:08.316Z,69.57
2017-04-14T01:00:34.399Z,69.19
2017-04-14T01:01:00.528Z,68.9
2017-04-14T01:01:26.619Z,68.33
2017-04-14T01:01:52.736Z,68.52
2017-04-14T01:02:18.817Z,67.92
2017-04-14T01:02:44.922Z,67.92
2017-04-14T01:03:11.025Z,67.73
2017-04-14T01:03:37.175Z,68.96
2017-04-14T01:04:03.329Z,69.54
2017-04-14T01:04:29.456Z,69.82
2017-04-14T01:04:55.556Z,69.35
2017-04-14T01:05:21.638Z,69.92
2017-04-14T01:05:47.719Z,70.49
2017-04-14T01:06:13.798Z,70.1
2017-04-14T01:06:39.978Z,71.06
2017-04-14T01:07:06.057Z,71.86
2017-04-14T01:07:32.140Z,72.39
2017-04-14T01:07:58.246Z,71.76
2017-04-14T01:08:24.401Z,70.9
2017-04-14T01:08:50.509Z,69.57
2017-04-14T01:09:16.613Z,69.48
2017-04-14T01:09:42.717Z,68.9
2017-04-14T01:10:08.845Z,68.62
2017-04-14T01:10:34.950Z,68.01
2017-04-14T01:11:01.080Z,68.01
2017-04-14T01:11:27.182Z,68.49
2017-04-14T01:11:53.263Z,68.68
2017-04-14T01:12:19.345Z,68.49
2017-04-14T01:12:45.450Z,68.96
2017-04-14T01:13:11.555Z,68.4
2017-04-14T01:13:37.684Z,68.49
2017-04-14T01:14:03.812Z,68.87
2017-04-14T01:14:29.917Z,68.96
2017-04-14T01:14:56.044Z,68.87
2017-04-14T01:15:22.124Z,69.15
2017-04-14T01:15:48.248Z,68.68
2017-04-14T01:16:14.333Z,68.77
2017-04-14T01:16:40.431Z,68.68
2017-04-14T01:17:06.539Z,69.25
2017-04-14T01:17:32.667Z,69.73
2017-04-14T01:17:58.770Z,69.82
2017-04-14T01:18:24.876Z,69.54
2017-04-14T01:18:50.958Z,68.96
2017-04-14T01:19:17.061Z,69.06
2017-04-14T01:19:43.141Z,68.96
2017-04-14T01:20:09.295Z,68.96
2017-04-14T01:20:35.394Z,69.06
2017-04-14T01:21:01.496Z,68.49
2017-04-14T01:21:27.578Z,69.25
2017-04-14T01:21:53.658Z,69.06
2017-04-14T01:22:19.737Z,69.63
2017-04-14T01:22:45.861Z,69.73
2017-04-14T01:23:11.965Z,69.35
2017-04-14T01:23:38.072Z,70.01
2017-04-14T01:24:04.179Z,69.63
2017-04-14T01:24:30.256Z,69.54
2017-04-14T01:24:56.362Z,70.2
2017-04-14T01:25:22.443Z,70.39
2017-04-14T01:25:48.525Z,70.39
2017-04-14T01:26:14.654Z,69.92
2017-04-14T01:26:40.736Z,70.36
2017-04-14T01:27:06.817Z,70.26
2017-04-14T01:27:32.898Z,70.1
2017-04-14T01:27:59.002Z,70.36
2017-04-14T01:28:25.205Z,70.3
2017-04-14T01:28:51.330Z,70.2
2017-04-14T01:29:17.556Z,69.92
2017-04-14T01:29:43.706Z,69.82
2017-04-14T01:30:09.855Z,70.49
2017-04-14T01:30:35.938Z,70.36
2017-04-14T01:31:02.018Z,70.36
2017-04-14T01:31:28.120Z,70.83
2017-04-14T01:31:54.250Z,70.64
2017-04-14T01:32:20.401Z,70.74
2017-04-14T01:32:46.483Z,71.12
2017-04-14T01:33:12.563Z,71.12
2017-04-14T01:33:38.669Z,70.83
2017-04-14T01:34:04.790Z,70.83
2017-04-14T01:34:30.939Z,70.83
2017-04-14T01:34:57.021Z,70.93
2017-04-14T01:35:23.104Z,70.93
2017-04-14T01:35:49.185Z,71.22
2017-04-14T01:36:15.294Z,71.78
2017-04-14T01:36:41.372Z,71.59
2017-04-14T01:37:07.519Z,72.26
2017-04-14T01:37:33.577Z,72.07
2017-04-14T01:37:59.660Z,72.26
2017-04-14T01:38:25.764Z,72.26
2017-04-14T01:38:51.870Z,71.88
2017-04-14T01:39:17.952Z,71.97
2017-04-14T01:39:44.032Z,71.97
2017-04-14T01:40:10.158Z,72.26
2017-04-14T01:40:36.261Z,72.35
2017-04-14T01:41:02.344Z,71.69
2017-04-14T01:41:28.449Z,71.69
2017-04-14T01:41:54.532Z,71.69
2017-04-14T01:42:20.611Z,72.16
2017-04-14T01:42:46.693Z,72.07
2017-04-14T01:43:12.843Z,72.26
2017-04-14T01:43:38.950Z,72.07
2017-04-14T01:44:05.033Z,72.26
2017-04-14T01:44:31.137Z,71.78
2017-04-14T01:44:57.219Z,71.41
2017-04-14T01:45:23.321Z,72.07
2017-04-14T01:45:49.426Z,71.78
2017-04-14T01:46:15.508Z,71.88
2017-04-14T01:46:41.614Z,71.88
2017-04-14T01:47:07.694Z,72.07
2017-04-14T01:47:33.798Z,71.88
2017-04-14T01:47:59.901Z,71.97
2017-04-14T01:48:26.034Z,72.16
2017-04-14T01:48:52.162Z,72.07
2017-04-14T01:49:18.245Z,72.35
2017-04-14T01:49:44.370Z,72.26
2017-04-14T01:50:10.494Z,72.07
2017-04-14T01:50:36.575Z,71.69
2017-04-14T01:51:02.656Z,71.59
2017-04-14T01:51:28.760Z,71.69
2017-04-14T01:51:54.840Z,72.16
2017-04-14T01:52:20.967Z,72.07
2017-04-14T01:52:47.051Z,72.16
2017-04-14T01:53:13.201Z,71.41
2017-04-14T01:53:39.351Z,71.97
2017-04-14T01:54:05.501Z,72.16
2017-04-14T01:54:31.584Z,71.88
2017-04-14T01:54:57.710Z,71.69
2017-04-14T01:55:23.817Z,72.07
2017-04-14T01:55:49.921Z,71.69
2017-04-14T01:56:16.024Z,71.97
2017-04-14T01:56:42.105Z,71.88
2017-04-14T01:57:08.231Z,72.16
2017-04-14T01:57:34.364Z,72.45
2017-04-14T01:58:00.468Z,72.45
2017-04-14T01:58:26.597Z,72.45
2017-04-14T01:58:52.824Z,72.35
2017-04-14T01:59:18.930Z,72.35
2017-04-14T01:59:45.009Z,72.35
2017-04-14T02:00:11.089Z,72.26
2017-04-14T02:00:37.218Z,72.35
2017-04-14T02:01:03.297Z,72.07
2017-04-14T02:01:29.405Z,73.02
2017-04-14T02:01:55.483Z,72.83
2017-04-14T02:02:21.564Z,72.74
2017-04-14T02:02:47.688Z,72.83
2017-04-14T02:03:13.842Z,72.45
2017-04-14T02:03:39.924Z,72.74
2017-04-14T02:04:06.052Z,73.4
2017-04-14T02:04:32.137Z,72.92
2017-04-14T02:04:58.263Z,72.83
2017-04-14T02:05:24.344Z,72.55
2017-04-14T02:05:50.473Z,72.92
2017-04-14T02:06:16.577Z,72.92
2017-04-14T02:06:42.805Z,73.3
2017-04-14T02:07:08.884Z,73.4
2017-04-14T02:07:34.988Z,72.92
2017-04-14T02:08:01.222Z,72.99
2017-04-14T02:08:27.325Z,73.02
2017-04-14T02:08:53.497Z,73.46
2017-04-14T02:09:19.600Z,73.46
2017-04-14T02:09:45.704Z,73.55
2017-04-14T02:10:11.784Z,73.36
2017-04-14T02:10:37.913Z,74.03
2017-04-14T02:11:04.044Z,73.84
2017-04-14T02:11:30.150Z,74.03
2017-04-14T02:11:56.227Z,73.93
2017-04-14T02:12:22.330Z,73.74
2017-04-14T02:12:48.435Z,73.93
2017-04-14T02:13:14.540Z,73.93
2017-04-14T02:13:43.679Z,73.74
2017-04-14T02:14:09.786Z,74.03
2017-04-14T02:14:35.912Z,74.22
2017-04-14T02:15:01.993Z,74.41
2017-04-14T02:15:28.074Z,74.51
2017-04-14T02:15:54.154Z,74.22
2017-04-14T02:16:20.255Z,74.41
2017-04-14T02:16:46.339Z,74.51
2017-04-14T02:17:12.443Z,74.41
2017-04-14T02:17:38.547Z,74.31
2017-04-14T02:18:04.652Z,74.41
2017-04-14T02:18:30.733Z,74.51
2017-04-14T02:18:56.883Z,74.69
2017-04-14T02:19:23.031Z,74.41
2017-04-14T02:19:49.114Z,74.03
2017-04-14T02:20:15.217Z,74.26
2017-04-14T02:20:41.347Z,74.82
2017-04-14T02:21:07.430Z,74.73
2017-04-14T02:21:33.513Z,75.02
2017-04-14T02:21:59.594Z,74.35
2017-04-14T02:22:25.699Z,74.26
2017-04-14T02:22:51.780Z,74.26
2017-04-14T02:23:17.863Z,73.88
2017-04-14T02:23:43.966Z,74.07
2017-04-14T02:24:10.069Z,74.03
2017-04-14T02:24:36.172Z,74.22
2017-04-14T02:25:02.272Z,74.22
2017-04-14T02:25:28.352Z,74.31
2017-04-14T02:25:54.433Z,74.51
2017-04-14T02:26:20.520Z,74.41
2017-04-14T02:26:46.642Z,74.69
2017-04-14T02:27:12.726Z,74.69
2017-04-14T02:27:38.846Z,74.41
2017-04-14T02:28:04.952Z,74.73
2017-04-14T02:28:31.058Z,74.44
2017-04-14T02:28:57.204Z,74.44
2017-04-14T02:29:23.332Z,74.73
2017-04-14T02:29:49.435Z,74.35
2017-04-14T02:30:15.541Z,74.51
2017-04-14T02:30:41.645Z,74.44
2017-04-14T02:31:07.776Z,75.02
2017-04-14T02:31:33.879Z,74.54
2017-04-14T02:31:59.961Z,74.6
2017-04-14T02:32:26.062Z,74.73
2017-04-14T02:32:52.164Z,74.79
2017-04-14T02:33:18.269Z,74.69
2017-04-14T02:33:44.374Z,74.98
2017-04-14T02:34:10.456Z,74.82
2017-04-14T02:34:36.560Z,75.02
2017-04-14T02:35:02.688Z,75.59
2017-04-14T02:35:28.768Z,75.59
2017-04-14T02:35:54.872Z,75.68
2017-04-14T02:36:20.953Z,75.4
2017-04-14T02:36:47.059Z,75.21
2017-04-14T02:37:13.143Z,74.98
2017-04-14T02:37:39.246Z,75.02
2017-04-14T02:38:05.372Z,74.69
2017-04-14T02:38:31.498Z,74.98
2017-04-14T02:38:57.649Z,75.02
2017-04-14T02:39:23.775Z,74.92
2017-04-14T02:39:49.878Z,75.02
2017-04-14T02:40:15.981Z,74.79
2017-04-14T02:40:42.087Z,75.17
2017-04-14T02:41:08.165Z,75.17
2017-04-14T02:41:34.345Z,74.98
2017-04-14T02:42:00.450Z,74.82
2017-04-14T02:42:26.578Z,74.6
2017-04-14T02:42:52.686Z,74.73
2017-04-14T02:43:18.792Z,74.88
2017-04-14T02:43:44.916Z,74.92
2017-04-14T02:44:11.043Z,74.79
2017-04-14T02:44:37.146Z,75.07
2017-04-14T02:45:03.248Z,75.02
2017-04-14T02:45:29.380Z,74.63
2017-04-14T02:45:55.460Z,74.73
2017-04-14T02:46:21.539Z,74.73
2017-04-14T02:46:47.643Z,74.63
2017-04-14T02:47:13.770Z,75.11
2017-04-14T02:47:39.848Z,74.82
2017-04-14T02:48:05.931Z,74.54
2017-04-14T02:48:32.064Z,75.11
2017-04-14T02:48:58.192Z,75.11
2017-04-14T02:49:24.341Z,74.63
2017-04-14T02:49:50.447Z,74.79
2017-04-14T02:50:16.527Z,74.6
2017-04-14T02:50:42.607Z,74.51
2017-04-14T02:51:08.686Z,74.51
2017-04-14T02:51:34.791Z,74.51
2017-04-14T02:52:00.898Z,74.88
2017-04-14T02:52:27.009Z,74.69
2017-04-14T02:52:53.155Z,74.88
2017-04-14T02:53:19.262Z,75.07
2017-04-14T02:53:45.391Z,75.74
2017-04-14T02:54:11.495Z,75.64
2017-04-14T02:54:37.627Z,75.74
2017-04-14T02:55:03.755Z,75.84
2017-04-14T02:55:29.835Z,75.84
2017-04-14T02:55:55.917Z,76.12
2017-04-14T02:56:22.020Z,75.74
2017-04-14T02:56:48.124Z,76.12
2017-04-14T02:57:14.207Z,75.84
2017-04-14T02:57:40.312Z,75.84
2017-04-14T02:58:06.440Z,76.12
2017-04-14T02:58:32.523Z,76.03
2017-04-14T02:58:58.651Z,75.84
2017-04-14T02:59:24.734Z,75.84
2017-04-14T02:59:50.884Z,75.93
2017-04-14T03:00:16.917Z,76.03
2017-04-14T03:00:42.999Z,76.12
2017-04-14T03:01:09.105Z,76.03
2017-04-14T03:01:35.182Z,76.5
2017-04-14T03:02:01.261Z,75.93
2017-04-14T03:02:27.352Z,75.84
2017-04-14T03:02:53.470Z,75.84
2017-04-14T03:03:19.646Z,76.21
2017-04-14T03:03:45.751Z,76.12
2017-04-14T03:04:11.835Z,76.21
2017-04-14T03:04:37.983Z,76.21
2017-04-14T03:05:04.113Z,76.4
2017-04-14T03:05:30.215Z,76.03
2017-04-14T03:05:56.339Z,76.21
2017-04-14T03:06:22.419Z,75.93
2017-04-14T03:06:48.500Z,75.93
2017-04-14T03:07:14.605Z,76.31
2017-04-14T03:07:40.785Z,76.12
2017-04-14T03:08:06.889Z,76.21
2017-04-14T03:08:33.016Z,76.12
2017-04-14T03:08:59.097Z,76.59
2017-04-14T03:09:25.228Z,76.97
2017-04-14T03:09:51.333Z,76.5
2017-04-14T03:10:17.507Z,76.59
2017-04-14T03:10:43.555Z,76.5
2017-04-14T03:11:09.682Z,76.88
2017-04-14T03:11:35.762Z,76.78
2017-04-14T03:12:01.891Z,76.56
2017-04-14T03:12:27.973Z,76.59
2017-04-14T03:12:54.053Z,77.12
2017-04-14T03:13:20.156Z,77.41
2017-04-14T03:13:46.305Z,77.12
2017-04-14T03:14:12.431Z,77.07
2017-04-14T03:14:38.556Z,77.03
2017-04-14T03:15:04.662Z,76.88
2017-04-14T03:15:30.746Z,77.17
2017-04-14T03:15:56.830Z,76.93
2017-04-14T03:16:22.906Z,76.84
2017-04-14T03:16:49.007Z,77.03
2017-04-14T03:17:15.089Z,76.84
2017-04-14T03:17:41.217Z,77.03
2017-04-14T03:18:07.301Z,77.6
2017-04-14T03:18:33.401Z,77.6
2017-04-14T03:18:59.530Z,77.6
2017-04-14T03:19:25.630Z,77.31
2017-04-14T03:19:51.757Z,77.31
2017-04-14T03:20:17.864Z,77.41
2017-04-14T03:20:43.967Z,77.7
2017-04-14T03:21:10.073Z,77.31
2017-04-14T03:21:36.162Z,77.51
2017-04-14T03:22:02.280Z,77.51
2017-04-14T03:22:28.397Z,77.41
2017-04-14T03:22:54.501Z,77.89
2017-04-14T03:23:20.635Z,77.89
2017-04-14T03:23:46.748Z,77.98
2017-04-14T03:24:12.853Z,78.08
2017-04-14T03:24:39.024Z,78.08
2017-04-14T03:25:05.149Z,77.89
2017-04-14T03:25:31.272Z,78.08
2017-04-14T03:25:57.354Z,77.98
2017-04-14T03:26:23.437Z,78.36
2017-04-14T03:26:49.542Z,78.45
2017-04-14T03:27:15.691Z,78.45
2017-04-14T03:27:41.794Z,78.55
2017-04-14T03:28:07.873Z,78.36
2017-04-14T03:28:33.958Z,78.17
2017-04-14T03:29:00.091Z,77.89
2017-04-14T03:29:26.214Z,78.17
2017-04-14T03:29:52.349Z,78.17
2017-04-14T03:30:18.485Z,78.08
2017-04-14T03:30:44.559Z,77.98
2017-04-14T03:31:10.664Z,78.27
2017-04-14T03:31:36.747Z,78.55
2017-04-14T03:32:02.856Z,78.55
2017-04-14T03:32:28.959Z,78.36
2017-04-14T03:32:55.112Z,78.36
2017-04-14T03:33:21.241Z,78.64
2017-04-14T03:33:47.320Z,78.74
2017-04-14T03:34:13.400Z,78.17
2017-04-14T03:34:39.504Z,78.93
2017-04-14T03:35:05.630Z,78.83
2017-04-14T03:35:31.712Z,79.12
2017-04-14T03:35:57.796Z,79.03
2017-04-14T03:36:23.920Z,79.69
2017-04-14T03:36:50.051Z,79.41
2017-04-14T03:37:16.173Z,79.22
2017-04-14T03:37:42.377Z,79.6
2017-04-14T03:38:08.481Z,79.79
2017-04-14T03:38:34.607Z,79.12
2017-04-14T03:39:00.710Z,79.41
2017-04-14T03:39:26.814Z,79.12
2017-04-14T03:39:52.917Z,79.22
2017-04-14T03:40:19.024Z,78.93
2017-04-14T03:40:45.103Z,78.64
2017-04-14T03:41:11.230Z,79.03
2017-04-14T03:41:37.312Z,79.41
2017-04-14T03:42:03.413Z,79.5
2017-04-14T03:42:29.585Z,79.12
2017-04-14T03:42:55.664Z,79.22
2017-04-14T03:43:21.767Z,79.03
2017-04-14T03:43:47.895Z,79.22
2017-04-14T03:44:14.023Z,79.12
2017-04-14T03:44:40.127Z,79.41
2017-04-14T03:45:06.207Z,79.31
2017-04-14T03:45:32.286Z,79.41
2017-04-14T03:45:58.369Z,79.79
2017-04-14T03:46:24.471Z,79.69
2017-04-14T03:46:50.552Z,80.16
2017-04-14T03:47:16.632Z,79.88
2017-04-14T03:47:42.714Z,79.69
2017-04-14T03:48:08.863Z,79.97
2017-04-14T03:48:34.942Z,79.88
2017-04-14T03:49:01.073Z,79.88
2017-04-14T03:49:27.202Z,80.26
2017-04-14T03:49:53.307Z,80.07
2017-04-14T03:50:19.433Z,79.97
2017-04-14T03:50:45.513Z,80.35
2017-04-14T03:51:11.591Z,80.45
2017-04-14T03:51:37.694Z,79.88
2017-04-14T03:52:03.801Z,79.97
2017-04-14T03:52:29.931Z,79.97
2017-04-14T03:52:56.037Z,79.69
2017-04-14T03:53:22.160Z,79.88
2017-04-14T03:53:48.316Z,79.69
2017-04-14T03:54:14.423Z,79.97
2017-04-14T03:54:40.548Z,79.41
2017-04-14T03:55:06.803Z,79.69
2017-04-14T03:55:32.885Z,79.69
2017-04-14T03:55:58.987Z,80.13
2017-04-14T03:56:25.111Z,80.13
2017-04-14T03:56:51.212Z,80.03
2017-04-14T03:57:17.316Z,80.32
2017-04-14T03:57:43.423Z,80.79
2017-04-14T03:58:09.596Z,80.79
2017-04-14T03:58:35.723Z,80.79
2017-04-14T03:59:01.852Z,80.6
2017-04-14T03:59:27.977Z,80.41
2017-04-14T03:59:54.126Z,80.6
2017-04-14T04:00:20.255Z,80.79
2017-04-14T04:00:46.334Z,80.6
2017-04-14T04:01:12.459Z,80.88
2017-04-14T04:01:38.537Z,80.41
2017-04-14T04:02:04.619Z,80.41
2017-04-14T04:02:30.722Z,80.51
2017-04-14T04:02:56.918Z,80.32
2017-04-14T04:03:23.024Z,80.32
2017-04-14T04:03:49.179Z,80.32
2017-04-14T04:04:15.255Z,80.41
2017-04-14T04:04:41.357Z,80.22
2017-04-14T04:05:07.457Z,80.41
2017-04-14T04:05:33.540Z,80.98
2017-04-14T04:05:59.666Z,81.17
2017-04-14T04:06:25.751Z,81.07
2017-04-14T04:06:51.880Z,81.17
2017-04-14T04:07:18.005Z,81.36
2017-04-14T04:07:44.111Z,81.17
2017-04-14T04:08:10.261Z,81.26
2017-04-14T04:08:36.387Z,81.36
2017-04-14T04:09:02.514Z,81.55
2017-04-14T04:09:28.612Z,81.65
2017-04-14T04:09:54.692Z,81.26
2017-04-14T04:10:20.795Z,81.74
2017-04-14T04:10:46.897Z,81.45
2017-04-14T04:11:12.979Z,81.45
2017-04-14T04:11:39.086Z,81.26
2017-04-14T04:12:05.163Z,81.55
2017-04-14T04:12:31.265Z,81.45
2017-04-14T04:12:57.414Z,80.98
2017-04-14T04:13:23.563Z,80.88
2017-04-14T04:13:49.666Z,81.17
2017-04-14T04:14:15.746Z,81.07
2017-04-14T04:14:41.898Z,80.88
2017-04-14T04:15:08.046Z,80.98
2017-04-14T04:15:34.173Z,80.79
2017-04-14T04:16:00.254Z,80.88
2017-04-14T04:16:26.334Z,81.36
2017-04-14T04:16:52.415Z,81.55
2017-04-14T04:17:18.544Z,81.74
2017-04-14T04:17:44.646Z,81.84
2017-04-14T04:18:10.747Z,82.21
2017-04-14T04:18:36.851Z,81.65
2017-04-14T04:19:02.980Z,81.84
2017-04-14T04:19:29.108Z,82.31
2017-04-14T04:19:55.216Z,82.4
2017-04-14T04:20:21.318Z,82.4
2017-04-14T04:20:47.399Z,82.69
2017-04-14T04:21:13.477Z,82.5
2017-04-14T04:21:39.559Z,82.59
2017-04-14T04:22:05.640Z,82.5
2017-04-14T04:22:31.746Z,82.31
2017-04-14T04:22:57.851Z,82.03
2017-04-14T04:23:23.977Z,81.65
2017-04-14T04:23:50.103Z,81.74
2017-04-14T04:24:16.209Z,82.03
2017-04-14T04:24:42.336Z,81.84
2017-04-14T04:25:08.436Z,82.03
2017-04-14T04:25:34.516Z,81.74
2017-04-14T04:26:00.598Z,81.45
2017-04-14T04:26:26.676Z,81.36
2017-04-14T04:26:52.755Z,81.36
2017-04-14T04:27:18.838Z,81.36
2017-04-14T04:27:44.965Z,81.36
2017-04-14T04:28:11.069Z,81.45
2017-04-14T04:28:37.173Z,81.17
2017-04-14T04:29:03.279Z,81.55
2017-04-14T04:29:29.388Z,82.21
2017-04-14T04:29:55.485Z,81.93
2017-04-14T04:30:21.587Z,81.84
2017-04-14T04:30:47.692Z,81.74
2017-04-14T04:31:13.771Z,81.84
2017-04-14T04:31:39.875Z,81.65
2017-04-14T04:32:05.975Z,81.74
2017-04-14T04:32:32.077Z,81.84
2017-04-14T04:32:58.181Z,82.03
2017-04-14T04:33:24.293Z,82.12
2017-04-14T04:33:50.375Z,82.5
2017-04-14T04:34:16.504Z,81.84
2017-04-14T04:34:42.677Z,81.84
2017-04-14T04:35:08.761Z,81.84
2017-04-14T04:35:34.840Z,81.65
2017-04-14T04:36:00.945Z,82.4
2017-04-14T04:36:27.025Z,82.12
2017-04-14T04:36:53.131Z,82.12
2017-04-14T04:37:19.259Z,82.59
2017-04-14T04:37:45.341Z,82.5
2017-04-14T04:38:11.494Z,82.59
2017-04-14T04:38:37.599Z,82.5
2017-04-14T04:39:03.748Z,82.5
2017-04-14T04:39:29.831Z,82.4
2017-04-14T04:39:55.913Z,82.69
2017-04-14T04:40:22.016Z,82.4
2017-04-14T04:40:48.210Z,82.69
2017-04-14T04:41:14.246Z,82.69
2017-04-14T04:41:40.325Z,82.59
2017-04-14T04:42:06.428Z,82.21
2017-04-14T04:42:32.536Z,82.21
2017-04-14T04:42:58.644Z,82.59
2017-04-14T04:43:24.746Z,82.88
2017-04-14T04:43:50.852Z,82.88
2017-04-14T04:44:16.976Z,82.31
2017-04-14T04:44:43.082Z,82.31
2017-04-14T04:45:09.212Z,82.78
2017-04-14T04:45:35.293Z,82.4
2017-04-14T04:46:01.397Z,82.5
2017-04-14T04:46:27.478Z,82.69
2017-04-14T04:46:53.607Z,82.4
2017-04-14T04:47:19.687Z,82.69
2017-04-14T04:47:45.767Z,82.5
2017-04-14T04:48:11.869Z,82.4
2017-04-14T04:48:38.045Z,82.21
2017-04-14T04:49:04.198Z,82.4
2017-04-14T04:49:30.328Z,82.31
2017-04-14T04:49:56.500Z,82.59
2017-04-14T04:50:22.582Z,82.78
2017-04-14T04:50:48.711Z,82.4
2017-04-14T04:51:14.837Z,82.78
2017-04-14T04:51:40.970Z,82.88
2017-04-14T04:52:07.074Z,82.78
2017-04-14T04:52:33.177Z,82.4
2017-04-14T04:52:59.257Z,82.59
2017-04-14T04:53:25.336Z,82.69
2017-04-14T04:53:51.439Z,82.78
2017-04-14T04:54:17.518Z,82.59
2017-04-14T04:54:43.646Z,82.59
2017-04-14T04:55:09.748Z,82.69
2017-04-14T04:55:35.829Z,82.78
2017-04-14T04:56:01.912Z,82.69
2017-04-14T04:56:27.993Z,82.97
2017-04-14T04:56:54.078Z,82.97
2017-04-14T04:57:20.182Z,82.59
2017-04-14T04:57:46.289Z,82.69
2017-04-14T04:58:12.440Z,82.78
2017-04-14T04:58:38.588Z,82.69
2017-04-14T04:59:04.715Z,82.59
2017-04-14T04:59:30.812Z,83.26
2017-04-14T04:59:56.915Z,82.69
2017-04-14T05:00:22.996Z,82.78
2017-04-14T05:00:49.124Z,82.4
2017-04-14T05:01:15.206Z,82.78
2017-04-14T05:01:41.308Z,82.4
2017-04-14T05:02:07.409Z,82.69
2017-04-14T05:02:33.563Z,82.5
2017-04-14T05:02:59.666Z,82.69
2017-04-14T05:03:25.791Z,82.69
2017-04-14T05:03:51.874Z,82.5
2017-04-14T05:04:18.001Z,82.69
2017-04-14T05:04:44.085Z,82.78
2017-04-14T05:05:10.191Z,83.16
2017-04-14T05:05:36.296Z,82.97
2017-04-14T05:06:02.398Z,83.36
2017-04-14T05:06:28.502Z,83.36
2017-04-14T05:06:54.584Z,83.45
2017-04-14T05:07:20.666Z,82.88
2017-04-14T05:07:46.749Z,83.36
2017-04-14T05:08:12.852Z,83.26
2017-04-14T05:08:38.980Z,83.45
2017-04-14T05:09:05.109Z,83.26
2017-04-14T05:09:31.275Z,82.97
2017-04-14T05:09:57.370Z,83.07
2017-04-14T05:10:23.449Z,83.26
2017-04-14T05:10:49.571Z,83.26
2017-04-14T05:11:15.630Z,82.88
2017-04-14T05:11:41.735Z,83.16
2017-04-14T05:12:07.884Z,83.07
2017-04-14T05:12:33.990Z,82.97
2017-04-14T05:13:00.142Z,83.16
2017-04-14T05:13:26.346Z,83.16
2017-04-14T05:13:52.474Z,83.26
2017-04-14T05:14:18.577Z,83.16
2017-04-14T05:14:44.679Z,83.36
2017-04-14T05:15:10.787Z,83.16
2017-04-14T05:15:36.892Z,83.07
2017-04-14T05:16:02.992Z,83.26
2017-04-14T05:16:29.120Z,83.36
2017-04-14T05:16:55.228Z,83.16
2017-04-14T05:17:21.334Z,83.16
2017-04-14T05:17:47.437Z,83.07
2017-04-14T05:18:13.543Z,82.97
2017-04-14T05:18:39.647Z,83.26
2017-04-14T05:19:05.771Z,83.16
2017-04-14T05:19:31.921Z,83.26
2017-04-14T05:19:58.025Z,82.88
2017-04-14T05:20:24.105Z,82.97
2017-04-14T05:20:50.187Z,82.88
2017-04-14T05:21:16.267Z,82.97
2017-04-14T05:21:42.348Z,82.69
2017-04-14T05:22:08.428Z,83.07
2017-04-14T05:22:34.506Z,82.78
2017-04-14T05:23:00.585Z,82.78
2017-04-14T05:23:26.687Z,82.88
2017-04-14T05:23:52.814Z,82.88
2017-04-14T05:24:18.918Z,82.69
2017-04-14T05:24:45.047Z,82.69
2017-04-14T05:25:11.127Z,82.5
2017-04-14T05:25:37.209Z,82.88
2017-04-14T05:26:03.335Z,83.26
2017-04-14T05:26:29.440Z,83.07
2017-04-14T05:26:55.592Z,82.78
2017-04-14T05:27:21.739Z,82.88
2017-04-14T05:27:47.822Z,82.69
2017-04-14T05:28:13.988Z,82.21
2017-04-14T05:29:36.066Z,82.78
2017-04-14T05:30:02.194Z,82.88
2017-04-14T05:30:28.347Z,82.59
2017-04-14T05:30:54.478Z,82.78
2017-04-14T05:31:20.580Z,82.78
2017-04-14T05:31:46.662Z,82.88
2017-04-14T05:32:12.740Z,82.88
2017-04-14T05:32:38.856Z,82.69
2017-04-14T05:33:04.950Z,82.4
2017-04-14T05:33:31.052Z,82.4
2017-04-14T05:33:57.159Z,82.5
2017-04-14T05:34:23.240Z,82.78
2017-04-14T05:34:49.349Z,82.03
2017-04-14T05:35:15.500Z,81.84
2017-04-14T05:35:41.604Z,82.21
2017-04-14T05:36:07.688Z,82.5
2017-04-14T05:36:33.794Z,82.26
2017-04-14T05:36:59.918Z,82.21
2017-04-14T05:37:26.021Z,82.03
2017-04-14T05:37:52.193Z,82.4
2017-04-14T05:38:18.320Z,82.69